Time;durP1;ratioP1;P1;durP2;ratioP2;P2;SDS_P1;SDS_P2;PMS_P1;PMS_P2;Temp;Humidity;BMP_temperature;BMP_pressure;BME280_temperature;BME280_humidity;BME280_pressure;Samples;Min_cycle;Max_cycle;Signal;HPM_P1;HPM_P2
2022/09/23 00:01:47;;;;;;;2.87;1.90;;;11.00;99.90;;;;;;5031830;28;20267;-57
2022/09/23 00:04:14;;;;;;;3.47;1.83;;;11.00;99.90;;;;;;5031756;28;20226;-59
2022/09/23 00:06:42;;;;;;;2.93;1.87;;;11.00;99.90;;;;;;5031409;28;20276;-50
2022/09/23 00:09:09;;;;;;;5.60;1.97;;;11.00;99.90;;;;;;5031923;28;20206;-55
2022/09/23 00:11:36;;;;;;;2.67;1.90;;;11.00;99.90;;;;;;5031619;28;20206;-56
2022/09/23 00:14:03;;;;;;;1.97;1.63;;;11.00;99.90;;;;;;5031609;28;20202;-54
2022/09/23 00:16:32;;;;;;;2.10;1.90;;;11.00;99.90;;;;;;5031390;28;20230;-57
2022/09/23 00:19:00;;;;;;;5.53;1.83;;;11.00;99.90;;;;;;5031853;28;20206;-53
2022/09/23 00:21:28;;;;;;;2.30;1.50;;;11.00;99.90;;;;;;5031646;28;20203;-56
2022/09/23 00:23:54;;;;;;;5.23;1.90;;;11.00;99.90;;;;;;5031513;28;20236;-58
2022/09/23 00:26:22;;;;;;;4.73;2.00;;;11.00;99.90;;;;;;5031366;28;20292;-57
2022/09/23 00:28:50;;;;;;;2.30;1.43;;;11.00;99.90;;;;;;5031585;28;20661;-55
2022/09/23 00:31:19;;;;;;;2.07;1.40;;;11.00;99.90;;;;;;5031575;28;20218;-57
2022/09/23 00:33:45;;;;;;;2.43;1.50;;;11.00;99.90;;;;;;5031485;28;20203;-57
2022/09/23 00:36:15;;;;;;;2.23;1.47;;;11.10;99.90;;;;;;5031203;28;20230;-57
2022/09/23 00:38:42;;;;;;;2.57;1.60;;;11.20;99.90;;;;;;5031664;28;20214;-57
2022/09/23 00:41:10;;;;;;;7.40;1.90;;;11.20;99.90;;;;;;5031525;28;20206;-58
2022/09/23 00:43:39;;;;;;;3.33;1.77;;;11.20;99.90;;;;;;5033368;28;20226;-57
2022/09/23 00:46:08;;;;;;;3.17;1.90;;;11.20;99.90;;;;;;5034698;28;20264;-57
2022/09/23 00:48:37;;;;;;;3.87;2.00;;;11.20;99.90;;;;;;5035189;28;20212;-55
2022/09/23 00:51:06;;;;;;;3.47;2.00;;;11.30;99.90;;;;;;5035092;28;20572;-59
2022/09/23 00:53:34;;;;;;;2.80;1.73;;;11.30;99.90;;;;;;5034790;28;20204;-56
2022/09/23 00:56:06;;;;;;;3.67;1.60;;;11.30;99.90;;;;;;5034792;28;20229;-59
2022/09/23 00:58:35;;;;;;;1.50;1.40;;;11.30;99.90;;;;;;5035069;28;20210;-57
2022/09/23 01:01:03;;;;;;;2.80;1.70;;;11.30;99.90;;;;;;5034732;28;20210;-57
2022/09/23 01:03:31;;;;;;;2.90;1.87;;;11.30;99.90;;;;;;5034791;28;20206;-56
2022/09/23 01:05:58;;;;;;;2.07;1.60;;;11.30;99.90;;;;;;5034555;28;20206;-58
2022/09/23 01:08:26;;;;;;;2.30;1.63;;;11.30;99.90;;;;;;5034779;28;20210;-57
2022/09/23 01:11:02;;;;;;;2.33;1.80;;;11.30;99.90;;;;;;5034854;28;20208;-55
2022/09/23 01:13:35;;;;;;;3.53;1.50;;;11.30;99.90;;;;;;5034590;28;20209;-58
2022/09/23 01:16:08;;;;;;;6.20;1.50;;;11.30;99.90;;;;;;5034294;28;20712;-56
2022/09/23 01:18:43;;;;;;;2.63;1.80;;;11.30;99.90;;;;;;5034417;28;20210;-56
2022/09/23 01:21:19;;;;;;;2.40;1.57;;;11.40;99.90;;;;;;5034603;28;20579;-56
2022/09/23 01:24:34;;;;;;;3.23;1.90;;;11.30;99.90;;;;;;5034474;28;20293;-58
2022/09/23 01:27:27;;;;;;;1.63;1.53;;;11.30;99.90;;;;;;5034241;28;20222;-54
2022/09/23 01:30:06;;;;;;;3.87;1.63;;;11.30;99.90;;;;;;5032445;28;20559;-51
2022/09/23 01:32:48;;;;;;;2.27;1.63;;;11.20;99.90;;;;;;5034938;28;20275;-56
2022/09/23 01:35:25;;;;;;;1.70;1.60;;;11.20;99.90;;;;;;5034727;28;20210;-52
2022/09/23 01:37:58;;;;;;;8.80;1.80;;;11.20;99.90;;;;;;5034040;28;20249;-54
2022/09/23 01:40:32;;;;;;;3.13;1.67;;;11.20;99.90;;;;;;5034257;28;20272;-52
2022/09/23 01:43:06;;;;;;;2.60;1.50;;;11.20;99.90;;;;;;5033927;28;20711;-49
2022/09/23 01:45:38;;;;;;;3.80;1.50;;;11.20;99.90;;;;;;5034084;28;20276;-52
2022/09/23 01:48:12;;;;;;;2.40;1.50;;;11.20;99.90;;;;;;5033932;28;20198;-51
2022/09/23 01:50:58;;;;;;;4.27;1.70;;;11.20;99.90;;;;;;5034171;28;20210;-50
2022/09/23 01:53:31;;;;;;;3.00;1.80;;;11.10;99.90;;;;;;5032837;28;20210;-51
2022/09/23 01:56:02;;;;;;;3.50;1.60;;;11.20;99.90;;;;;;5032791;28;20210;-55
2022/09/23 01:58:35;;;;;;;3.13;1.80;;;11.10;99.90;;;;;;5033445;28;20214;-51
2022/09/23 02:01:03;;;;;;;4.37;1.90;;;11.10;99.90;;;;;;5033782;28;20210;-52
2022/09/23 02:03:36;;;;;;;2.00;1.43;;;11.10;99.90;;;;;;5033790;28;20211;-53
2022/09/23 02:06:07;;;;;;;1.40;1.30;;;11.10;99.90;;;;;;5033526;28;20229;-55
2022/09/23 02:08:37;;;;;;;4.60;1.63;;;11.10;99.90;;;;;;5033658;28;20669;-50
2022/09/23 02:11:08;;;;;;;3.17;1.53;;;11.10;99.90;;;;;;5033755;28;20202;-52
2022/09/23 02:13:40;;;;;;;2.33;1.60;;;11.10;99.90;;;;;;5033703;28;20233;-52
2022/09/23 02:16:12;;;;;;;1.50;1.13;;;11.10;99.90;;;;;;5033690;28;20273;-58
2022/09/23 02:18:47;;;;;;;2.47;1.50;;;11.10;99.90;;;;;;5035352;28;20210;-58
2022/09/23 02:21:16;;;;;;;1.70;1.37;;;11.10;99.90;;;;;;5034496;28;20202;-51
2022/09/23 02:23:45;;;;;;;2.30;1.47;;;11.20;99.90;;;;;;5033313;28;20264;-55
2022/09/23 02:26:18;;;;;;;2.17;1.50;;;11.10;99.90;;;;;;5033142;28;20296;-57
2022/09/23 02:28:51;;;;;;;5.77;1.80;;;11.10;99.90;;;;;;5033131;28;20213;-54
2022/09/23 02:31:25;;;;;;;3.63;1.60;;;11.10;99.90;;;;;;5033186;28;20202;-55
2022/09/23 02:33:59;;;;;;;1.77;1.50;;;11.10;99.90;;;;;;5032867;28;20703;-51
2022/09/23 02:36:30;;;;;;;2.23;1.13;;;11.10;99.90;;;;;;5033001;28;20225;-55
2022/09/23 02:39:01;;;;;;;3.23;1.50;;;11.10;99.90;;;;;;5032845;28;20273;-56
2022/09/23 02:41:33;;;;;;;1.53;1.43;;;11.10;99.90;;;;;;5033046;28;20211;-55
2022/09/23 02:44:05;;;;;;;3.97;1.43;;;11.10;99.90;;;;;;5032646;28;20226;-57
2022/09/23 02:46:33;;;;;;;4.10;1.60;;;11.10;99.90;;;;;;5032541;28;20242;-54
2022/09/23 02:49:05;;;;;;;2.33;1.40;;;11.10;99.90;;;;;;5032867;28;20210;-58
2022/09/23 02:51:37;;;;;;;3.33;1.57;;;11.10;99.90;;;;;;5032920;28;20699;-58
2022/09/23 02:54:06;;;;;;;3.63;1.47;;;11.00;99.90;;;;;;5032616;28;20210;-56
2022/09/23 02:56:33;;;;;;;4.07;1.63;;;11.00;99.90;;;;;;5032066;28;20312;-58
2022/09/23 02:59:00;;;;;;;2.13;1.70;;;11.00;99.90;;;;;;5032712;28;20210;-59
2022/09/23 03:01:38;;;;;;;1.80;1.50;;;11.00;99.90;;;;;;5032499;28;20237;-55
2022/09/23 03:04:13;;;;;;;3.40;1.90;;;10.90;99.90;;;;;;5032508;28;20563;-58
2022/09/23 03:06:49;;;;;;;2.90;1.70;;;10.90;99.90;;;;;;5032311;28;20228;-55
2022/09/23 03:09:22;;;;;;;4.03;1.30;;;10.90;99.90;;;;;;5032533;28;20260;-57
2022/09/23 03:11:55;;;;;;;3.13;1.60;;;10.90;99.90;;;;;;5032610;28;20626;-56
2022/09/23 03:14:28;;;;;;;2.60;1.67;;;10.90;99.90;;;;;;5032248;28;20225;-59
2022/09/23 03:17:02;;;;;;;5.23;1.67;;;10.90;99.90;;;;;;5032058;28;20237;-55
2022/09/23 03:19:33;;;;;;;1.90;1.73;;;10.90;99.90;;;;;;5032142;28;20217;-54
2022/09/23 03:22:06;;;;;;;3.30;1.50;;;10.90;99.90;;;;;;5032408;28;20216;-56
2022/09/23 03:24:35;;;;;;;3.03;1.63;;;10.80;99.90;;;;;;5032220;28;20360;-54
2022/09/23 03:27:07;;;;;;;4.10;1.80;;;10.80;99.90;;;;;;5031785;28;20284;-56
2022/09/23 03:29:36;;;;;;;2.47;1.80;;;10.90;99.90;;;;;;5032061;28;20206;-54
2022/09/23 03:32:06;;;;;;;2.90;1.77;;;10.90;99.90;;;;;;5031958;28;20213;-56
2022/09/23 03:34:36;;;;;;;3.27;1.77;;;10.80;99.90;;;;;;5032037;28;20294;-52
2022/09/23 03:37:07;;;;;;;3.77;1.90;;;10.80;99.90;;;;;;5031818;28;20222;-55
2022/09/23 03:39:39;;;;;;;2.43;1.57;;;10.90;99.90;;;;;;5031736;28;20207;-54
2022/09/23 03:42:11;;;;;;;2.30;1.60;;;10.80;99.90;;;;;;5031945;28;20206;-59
2022/09/23 03:44:44;;;;;;;6.43;2.00;;;10.80;99.90;;;;;;5031584;28;20232;-57
2022/09/23 03:47:13;;;;;;;3.07;1.80;;;10.80;99.90;;;;;;5031868;28;20280;-57
2022/09/23 03:49:44;;;;;;;1.90;1.70;;;10.80;99.90;;;;;;5031327;28;20237;-57
2022/09/23 03:52:10;;;;;;;1.83;1.53;;;10.80;99.90;;;;;;5031866;28;20574;-54
2022/09/23 03:54:37;;;;;;;2.83;1.70;;;10.80;99.90;;;;;;5031791;28;20553;-58
2022/09/23 03:57:04;;;;;;;2.10;1.43;;;10.80;99.90;;;;;;5031351;28;20675;-59
2022/09/23 03:59:31;;;;;;;3.33;1.90;;;10.80;99.90;;;;;;5031898;28;20214;-52
2022/09/23 04:01:59;;;;;;;1.60;1.50;;;10.80;99.90;;;;;;5031812;28;20221;-57
2022/09/23 04:04:26;;;;;;;5.47;1.63;;;10.80;99.90;;;;;;5031739;28;20206;-57
2022/09/23 04:06:54;;;;;;;2.70;1.90;;;10.80;99.90;;;;;;5031436;28;20228;-52
2022/09/23 04:09:20;;;;;;;3.10;1.67;;;10.80;99.90;;;;;;5031523;28;20222;-55
2022/09/23 04:11:48;;;;;;;2.20;1.77;;;10.80;99.90;;;;;;5031587;28;20792;-54
2022/09/23 04:14:15;;;;;;;1.60;1.50;;;10.80;99.90;;;;;;5031525;28;20205;-55
2022/09/23 04:16:41;;;;;;;3.73;1.77;;;10.70;99.90;;;;;;5031239;28;20223;-55
2022/09/23 04:19:09;;;;;;;3.63;1.83;;;10.70;99.90;;;;;;5034506;28;20206;-53
2022/09/23 04:21:36;;;;;;;3.53;1.67;;;10.80;99.90;;;;;;5035377;28;20210;-60
2022/09/23 04:24:04;;;;;;;3.87;1.70;;;10.70;99.90;;;;;;5035407;28;20587;-57
2022/09/23 04:26:32;;;;;;;3.93;1.63;;;10.70;99.90;;;;;;5034816;28;20757;-54
2022/09/23 04:28:59;;;;;;;2.00;1.70;;;10.70;99.90;;;;;;5035554;28;20756;-55
2022/09/23 04:31:27;;;;;;;4.33;1.97;;;10.70;99.90;;;;;;5035229;28;20205;-54
2022/09/23 04:33:54;;;;;;;2.27;1.93;;;10.60;99.90;;;;;;5035322;28;20206;-53
2022/09/23 04:36:21;;;;;;;2.87;1.90;;;10.60;99.90;;;;;;5034740;28;20226;-54
2022/09/23 04:38:49;;;;;;;2.60;1.83;;;10.60;99.90;;;;;;5035167;28;20657;-56
2022/09/23 04:41:18;;;;;;;2.93;1.90;;;10.60;99.90;;;;;;5035174;28;20670;-56
2022/09/23 04:43:45;;;;;;;4.83;2.10;;;10.60;99.90;;;;;;5035312;28;20210;-56
2022/09/23 04:46:14;;;;;;;2.40;1.90;;;10.60;99.90;;;;;;5034516;28;20230;-56
2022/09/23 04:48:42;;;;;;;3.23;1.90;;;10.60;99.90;;;;;;5030568;28;20214;-53
2022/09/23 04:51:11;;;;;;;2.80;1.67;;;10.60;99.90;;;;;;5032204;28;20677;-57
2022/09/23 04:53:40;;;;;;;4.23;1.80;;;10.60;99.90;;;;;;5034481;28;20228;-55
2022/09/23 04:56:10;;;;;;;2.50;1.53;;;10.60;99.90;;;;;;5033824;28;20287;-55
2022/09/23 04:58:38;;;;;;;2.50;2.00;;;10.60;99.90;;;;;;5033967;28;20242;-55
2022/09/23 05:01:10;;;;;;;3.30;2.00;;;10.50;1.00;;;;;;5033061;28;20205;-52
2022/09/23 05:03:37;;;;;;;3.10;2.00;;;10.40;1.00;;;;;;5034386;28;20652;-56
2022/09/23 05:06:04;;;;;;;1.90;1.70;;;10.40;1.00;;;;;;5033667;28;20230;-56
2022/09/23 05:08:30;;;;;;;2.53;1.87;;;10.40;1.00;;;;;;5033513;28;20210;-57
2022/09/23 05:10:58;;;;;;;2.80;2.03;;;10.30;1.00;;;;;;5033337;28;20255;-51
2022/09/23 05:13:24;;;;;;;4.30;2.13;;;10.30;1.00;;;;;;5033593;28;20212;-53
2022/09/23 05:15:58;;;;;;;2.33;1.77;;;10.30;1.00;;;;;;5034039;28;20213;-58
2022/09/23 05:18:25;;;;;;;3.67;2.37;;;10.30;1.00;;;;;;5032364;28;20276;-53
2022/09/23 05:20:55;;;;;;;4.90;1.87;;;10.20;1.00;;;;;;5036398;28;20201;-60
2022/09/23 05:23:22;;;;;;;2.87;2.07;;;10.10;1.00;;;;;;5032013;28;20212;-59
2022/09/23 05:25:49;;;;;;;4.13;2.13;;;10.10;1.00;;;;;;5033753;28;20278;-52
2022/09/23 05:28:16;;;;;;;2.33;1.90;;;10.10;1.00;;;;;;5033644;28;20274;-58
2022/09/23 05:30:43;;;;;;;3.93;1.67;;;10.00;4.10;;;;;;5032646;28;20206;-59
2022/09/23 05:33:11;;;;;;;2.80;1.80;;;10.00;78.40;;;;;;5033541;28;20210;-59
2022/09/23 05:35:38;;;;;;;4.23;2.00;;;10.00;99.90;;;;;;5033918;28;20202;-60
2022/09/23 05:38:04;;;;;;;5.53;2.13;;;10.10;99.90;;;;;;5033175;28;20229;-60
2022/09/23 05:40:31;;;;;;;3.70;2.00;;;10.10;99.90;;;;;;5033665;28;20298;-54
2022/09/23 05:42:58;;;;;;;2.80;2.30;;;10.10;99.90;;;;;;5034161;28;20205;-55
2022/09/23 05:45:24;;;;;;;3.33;1.90;;;10.20;99.90;;;;;;5033048;28;20769;-51
2022/09/23 05:47:51;;;;;;;2.40;1.70;;;10.30;99.90;;;;;;5033347;28;20229;-48
2022/09/23 05:50:19;;;;;;;2.37;2.00;;;10.30;99.90;;;;;;5023059;28;20206;-55
2022/09/23 05:52:45;;;;;;;2.30;1.90;;;10.30;99.90;;;;;;5032743;28;20384;-55
2022/09/23 05:55:12;;;;;;;2.70;2.00;;;10.30;99.90;;;;;;5032795;28;20214;-56
2022/09/23 05:57:39;;;;;;;2.93;1.80;;;10.40;99.90;;;;;;5032573;28;20233;-55
2022/09/23 06:00:07;;;;;;;3.43;2.10;;;10.40;99.90;;;;;;5032016;28;20684;-50
2022/09/23 06:02:33;;;;;;;3.43;2.10;;;10.40;99.90;;;;;;5033261;28;20209;-50
2022/09/23 06:05:00;;;;;;;2.07;1.87;;;10.50;99.90;;;;;;5033705;28;20280;-57
2022/09/23 06:07:30;;;;;;;2.43;1.93;;;10.50;99.90;;;;;;5032569;28;20241;-57
2022/09/23 06:09:57;;;;;;;3.80;2.10;;;10.60;86.50;;;;;;5033059;28;20255;-56
2022/09/23 06:12:23;;;;;;;2.93;2.00;;;10.60;98.50;;;;;;5033092;28;20210;-56
2022/09/23 06:14:51;;;;;;;3.27;1.90;;;10.60;41.10;;;;;;5033186;28;20214;-55
2022/09/23 06:17:18;;;;;;;4.63;2.20;;;10.70;37.00;;;;;;5032452;28;20864;-62
2022/09/23 06:19:44;;;;;;;3.00;2.10;;;10.70;40.10;;;;;;5033208;28;20213;-58
2022/09/23 06:22:15;;;;;;;3.23;2.30;;;10.70;99.90;;;;;;5033363;28;20280;-63
2022/09/23 06:24:43;;;;;;;4.90;2.03;;;10.70;99.90;;;;;;5034215;28;20669;-59
2022/09/23 06:27:10;;;;;;;3.97;1.90;;;10.70;99.90;;;;;;5032749;28;20288;-62
2022/09/23 06:29:37;;;;;;;4.33;2.10;;;10.70;99.90;;;;;;5032423;28;20681;-62
2022/09/23 06:32:04;;;;;;;6.13;2.20;;;10.70;92.00;;;;;;5030824;28;20297;-60
2022/09/23 06:34:31;;;;;;;4.33;2.20;;;10.70;97.10;;;;;;5029668;28;20202;-54
2022/09/23 06:36:58;;;;;;;2.27;1.87;;;10.70;99.90;;;;;;5032117;28;20280;-61
2022/09/23 06:39:25;;;;;;;7.17;2.20;;;10.80;88.20;;;;;;5031108;28;20271;-57
2022/09/23 06:41:53;;;;;;;6.40;2.40;;;10.80;99.90;;;;;;5031204;28;20778;-51
2022/09/23 06:44:19;;;;;;;3.67;2.20;;;10.90;99.90;;;;;;5031925;28;20281;-58
2022/09/23 06:46:46;;;;;;;4.03;2.00;;;11.00;99.90;;;;;;5031461;28;20701;-51
2022/09/23 06:49:13;;;;;;;2.93;2.10;;;11.10;63.20;;;;;;5032040;28;20206;-55
2022/09/23 06:51:40;;;;;;;2.00;1.90;;;11.20;95.50;;;;;;5031306;28;20209;-55
2022/09/23 06:54:06;;;;;;;2.90;2.10;;;11.40;5.20;;;;;;5031816;28;20221;-53
2022/09/23 06:56:33;;;;;;;2.53;1.97;;;11.50;28.90;;;;;;5031480;28;20222;-53
2022/09/23 06:59:01;;;;;;;2.20;2.00;;;11.60;33.10;;;;;;5032052;28;20279;-59
2022/09/23 07:01:28;;;;;;;5.10;1.90;;;11.80;1.00;;;;;;5031234;28;20215;-55
2022/09/23 07:03:54;;;;;;;2.87;1.80;;;12.00;1.00;;;;;;5031750;28;20208;-54
2022/09/23 07:06:21;;;;;;;4.77;1.90;;;12.20;1.00;;;;;;5031451;28;20239;-51
2022/09/23 07:08:48;;;;;;;2.60;1.73;;;12.40;1.00;;;;;;5031306;28;20270;-59
2022/09/23 07:11:18;;;;;;;2.67;2.10;;;12.50;1.00;;;;;;5031618;28;20208;-59
2022/09/23 07:13:45;;;;;;;3.80;1.80;;;12.70;1.00;;;;;;5031760;28;20620;-54
2022/09/23 07:16:13;;;;;;;3.47;2.10;;;12.80;99.90;;;;;;5031274;28;20230;-53
2022/09/23 07:18:40;;;;;;;2.20;1.93;;;12.90;99.90;;;;;;5031174;28;20649;-56
2022/09/23 07:21:08;;;;;;;2.00;1.57;;;13.10;99.90;;;;;;5031002;28;20699;-53
2022/09/23 07:23:36;;;;;;;4.03;1.60;;;13.20;99.90;;;;;;5031173;28;20214;-52
2022/09/23 07:26:03;;;;;;;2.00;1.67;;;13.30;99.90;;;;;;5031023;28;20232;-54
2022/09/23 07:28:31;;;;;;;3.17;1.93;;;13.40;99.90;;;;;;5031467;28;20582;-59
2022/09/23 07:31:02;;;;;;;2.63;1.70;;;13.50;99.90;;;;;;5030884;28;20209;-52
2022/09/23 07:33:30;;;;;;;2.50;2.03;;;13.60;99.90;;;;;;5031368;28;20624;-57
2022/09/23 07:35:57;;;;;;;2.23;1.70;;;13.60;99.90;;;;;;5030701;28;20214;-56
2022/09/23 07:38:28;;;;;;;2.63;1.70;;;13.70;99.90;;;;;;5022270;28;20307;-56
2022/09/23 07:41:01;;;;;;;2.00;1.80;;;13.70;99.90;;;;;;5029730;28;20218;-61
2022/09/23 07:43:31;;;;;;;2.73;1.80;;;13.70;99.90;;;;;;5030847;28;20628;-62
2022/09/23 07:45:58;;;;;;;4.60;1.87;;;13.80;99.90;;;;;;5030001;28;20226;-61
2022/09/23 07:48:25;;;;;;;2.93;1.80;;;13.90;99.90;;;;;;5030783;28;20252;-61
2022/09/23 07:50:53;;;;;;;4.33;1.77;;;13.90;99.90;;;;;;5030846;28;20264;-60
2022/09/23 07:53:20;;;;;;;2.80;1.90;;;14.00;99.90;;;;;;5030218;28;20202;-58
2022/09/23 07:55:52;;;;;;;3.60;2.00;;;14.10;99.90;;;;;;5031185;28;20214;-62
2022/09/23 07:58:18;;;;;;;4.70;1.80;;;14.20;99.90;;;;;;5030783;28;20220;-62
2022/09/23 08:00:45;;;;;;;2.43;1.70;;;14.30;99.90;;;;;;5030435;28;20284;-56
2022/09/23 08:03:13;;;;;;;3.37;1.80;;;14.40;99.90;;;;;;5030482;28;20665;-55
2022/09/23 08:05:40;;;;;;;3.23;1.90;;;14.50;99.90;;;;;;5031025;28;20213;-60
2022/09/23 08:08:09;;;;;;;2.73;1.90;;;14.60;99.90;;;;;;5030252;28;20293;-60
2022/09/23 08:10:35;;;;;;;3.23;1.83;;;14.70;99.90;;;;;;5030943;28;20206;-58
2022/09/23 08:13:02;;;;;;;2.10;1.80;;;14.80;99.90;;;;;;5030656;28;20568;-60
2022/09/23 08:15:29;;;;;;;1.90;1.70;;;14.80;99.90;;;;;;5030271;28;20264;-57
2022/09/23 08:17:58;;;;;;;2.63;2.00;;;14.90;99.90;;;;;;5030862;28;20249;-60
2022/09/23 08:20:43;;;;;;;2.70;1.60;;;15.00;99.90;;;;;;5030626;28;20583;-60
2022/09/23 08:23:13;;;;;;;4.30;2.00;;;14.90;99.90;;;;;;5031181;28;20210;-64
2022/09/23 08:25:41;;;;;;;4.60;1.87;;;15.00;99.90;;;;;;5030538;28;20206;-63
2022/09/23 08:28:07;;;;;;;5.97;2.27;;;15.10;99.90;;;;;;5030548;28;20669;-64
2022/09/23 08:30:34;;;;;;;3.23;1.73;;;15.10;99.90;;;;;;5030199;28;20759;-63
2022/09/23 08:33:01;;;;;;;3.30;1.80;;;15.20;99.90;;;;;;5030781;28;20210;-64
2022/09/23 08:35:27;;;;;;;3.23;2.00;;;15.20;99.90;;;;;;5030631;28;20276;-64
2022/09/23 08:37:54;;;;;;;4.67;2.10;;;15.20;99.90;;;;;;5030254;28;20253;-63
2022/09/23 08:40:23;;;;;;;3.97;2.07;;;15.40;99.90;;;;;;5027769;28;20624;-63
2022/09/23 08:42:49;;;;;;;4.17;2.20;;;15.30;99.90;;;;;;5030005;28;20210;-61
2022/09/23 08:45:21;;;;;;;5.53;2.17;;;15.30;99.90;;;;;;5030771;28;20341;-56
2022/09/23 08:47:55;;;;;;;2.70;2.00;;;15.40;99.90;;;;;;5029732;28;20281;-58
2022/09/23 08:50:25;;;;;;;3.63;2.10;;;15.50;99.90;;;;;;5030358;28;20205;-60
2022/09/23 08:52:54;;;;;;;6.10;2.07;;;15.40;99.90;;;;;;5029751;28;20241;-61
2022/09/23 08:55:29;;;;;;;3.47;1.87;;;15.50;99.90;;;;;;5021410;28;20330;-58
2022/09/23 08:58:07;;;;;;;3.03;2.10;;;15.60;99.90;;;;;;5009939;28;20697;-62
2022/09/23 09:00:40;;;;;;;3.27;1.93;;;15.60;99.90;;;;;;5010860;28;20217;-56
2022/09/23 09:03:19;;;;;;;3.83;2.13;;;15.60;99.90;;;;;;5010368;28;20585;-56
2022/09/23 09:05:46;;;;;;;3.20;1.93;;;15.80;99.90;;;;;;5013809;28;20272;-57
2022/09/23 09:08:14;;;;;;;8.83;2.13;;;15.90;99.90;;;;;;5027170;28;20230;-57
2022/09/23 09:10:45;;;;;;;3.30;2.00;;;16.00;99.90;;;;;;5033147;28;20210;-58
2022/09/23 09:13:23;;;;;;;4.10;2.00;;;16.10;99.90;;;;;;5033675;28;20301;-56
2022/09/23 09:16:10;;;;;;;2.50;1.83;;;16.30;99.90;;;;;;5033074;28;20592;-60
2022/09/23 09:18:42;;;;;;;3.57;1.70;;;16.30;99.90;;;;;;5033977;28;20210;-57
2022/09/23 09:21:12;;;;;;;2.90;1.70;;;16.30;99.90;;;;;;5033049;28;20333;-59
2022/09/23 09:23:45;;;;;;;2.60;1.60;;;16.30;99.90;;;;;;5033910;28;20233;-56
2022/09/23 09:26:19;;;;;;;5.43;1.97;;;16.30;99.90;;;;;;5032698;28;20634;-62
2022/09/23 09:28:50;;;;;;;2.50;1.40;;;16.40;99.90;;;;;;5033535;28;20597;-56
2022/09/23 09:31:25;;;;;;;2.43;1.70;;;16.40;99.90;;;;;;5033145;28;20217;-59
2022/09/23 09:33:56;;;;;;;6.17;1.80;;;16.40;99.90;;;;;;5033672;28;20210;-60
2022/09/23 09:36:30;;;;;;;2.40;1.50;;;16.40;99.90;;;;;;5033311;28;20321;-61
2022/09/23 09:38:58;;;;;;;3.87;1.80;;;16.50;99.90;;;;;;5032981;28;20210;-62
2022/09/23 09:41:30;;;;;;;2.97;1.40;;;16.50;99.90;;;;;;5033085;28;20206;-58
2022/09/23 09:43:58;;;;;;;2.27;1.60;;;16.60;99.90;;;;;;5032921;28;20607;-55
2022/09/23 09:46:50;;;;;;;2.17;1.70;;;16.50;99.90;;;;;;5032759;28;20233;-59
2022/09/23 09:49:27;;;;;;;4.70;1.87;;;16.30;99.90;;;;;;5032905;28;20207;-61
2022/09/23 09:52:13;;;;;;;8.13;2.23;;;16.50;99.90;;;;;;5030893;28;20202;-61
2022/09/23 09:54:40;;;;;;;2.83;1.77;;;16.70;99.90;;;;;;5022010;28;20217;-62
2022/09/23 09:57:24;;;;;;;3.63;1.63;;;16.60;99.90;;;;;;5021652;28;20280;-56
2022/09/23 09:59:50;;;;;;;2.80;1.63;;;16.60;99.90;;;;;;5032488;28;20268;-62
2022/09/23 10:02:26;;;;;;;4.03;1.37;;;16.80;99.90;;;;;;5032995;28;20210;-62
2022/09/23 10:04:57;;;;;;;6.00;1.80;;;16.90;99.90;;;;;;5032657;28;20210;-59
2022/09/23 10:07:26;;;;;;;4.50;1.50;;;17.20;99.90;;;;;;5032518;28;20303;-60
2022/09/23 10:09:52;;;;;;;5.40;1.67;;;17.30;99.90;;;;;;5032654;28;20676;-56
2022/09/23 10:12:22;;;;;;;3.83;1.80;;;17.30;99.90;;;;;;5032081;28;20206;-52
2022/09/23 10:14:50;;;;;;;3.17;1.63;;;17.00;99.90;;;;;;5032877;28;20210;-59
2022/09/23 10:17:20;;;;;;;3.10;1.50;;;17.10;99.90;;;;;;5031379;28;20305;-60
2022/09/23 10:19:49;;;;;;;3.60;1.60;;;17.30;99.90;;;;;;5032112;28;20677;-54
2022/09/23 10:22:21;;;;;;;2.87;1.80;;;17.50;99.90;;;;;;5031625;28;20207;-60
2022/09/23 10:24:50;;;;;;;3.27;2.10;;;17.40;99.90;;;;;;5032591;28;20206;-60
2022/09/23 10:27:30;;;;;;;3.70;1.93;;;17.10;99.90;;;;;;5027516;28;20256;-61
2022/09/23 10:29:59;;;;;;;1.83;1.47;;;17.30;99.90;;;;;;5032572;28;20210;-62
2022/09/23 10:32:31;;;;;;;3.07;1.60;;;17.30;99.90;;;;;;5032547;28;20210;-60
2022/09/23 10:35:03;;;;;;;2.10;1.37;;;17.50;99.90;;;;;;5031826;28;20209;-61
2022/09/23 10:37:37;;;;;;;1.77;1.30;;;17.50;99.90;;;;;;5032121;28;20288;-57
2022/09/23 10:49:02;;;;;;;4.93;1.40;;;17.80;99.90;;;;;;5032617;28;20213;-51
2022/09/23 10:51:34;;;;;;;2.40;1.07;;;17.80;99.90;;;;;;5031583;28;20213;-55
2022/09/23 10:54:07;;;;;;;2.40;1.27;;;17.90;99.90;;;;;;5031797;28;20804;-56
2022/09/23 10:56:39;;;;;;;2.80;1.30;;;17.90;99.90;;;;;;5031151;28;20990;-62
2022/09/23 10:59:32;;;;;;;2.27;1.50;;;17.60;99.90;;;;;;5031839;28;20927;-62
2022/09/23 11:02:13;;;;;;;5.40;2.00;;;17.80;99.90;;;;;;5023143;28;20264;-64
2022/09/23 11:04:54;;;;;;;2.87;1.40;;;17.70;99.90;;;;;;5031416;28;20255;-62
2022/09/23 11:07:29;;;;;;;2.20;1.60;;;17.80;99.90;;;;;;5031473;28;20226;-64
2022/09/23 11:10:23;;;;;;;3.03;1.30;;;18.00;99.90;;;;;;5031911;28;20315;-62
2022/09/23 11:12:59;;;;;;;2.33;1.43;;;17.90;99.90;;;;;;5031234;28;20241;-62
2022/09/23 11:15:37;;;;;;;2.30;1.53;;;17.70;99.90;;;;;;5031711;28;20190;-64
2022/09/23 11:18:33;;;;;;;2.67;1.57;;;17.90;99.90;;;;;;5031312;28;20226;-65
2022/09/23 11:24:16;;;;;;;7.30;1.77;;;18.10;99.90;;;;;;5028518;28;20285;-66
2022/09/23 11:26:54;;;;;;;2.93;1.23;;;18.20;99.90;;;;;;5031092;28;20234;-67
2022/09/23 11:29:53;;;;;;;4.10;1.70;;;18.30;99.90;;;;;;5031021;28;20259;-65
2022/09/23 11:32:53;;;;;;;3.43;1.90;;;18.60;99.90;;;;;;5031254;28;20214;-67
2022/09/23 11:35:24;;;;;;;4.10;1.70;;;18.30;99.90;;;;;;5030958;28;20244;-66
2022/09/23 11:37:56;;;;;;;2.37;1.50;;;18.50;99.90;;;;;;5031290;28;20230;-64
2022/09/23 11:40:28;;;;;;;3.00;2.00;;;18.60;99.90;;;;;;5031472;28;20263;-64
2022/09/23 11:43:00;;;;;;;3.00;1.97;;;18.80;99.90;;;;;;5030736;28;20911;-61
2022/09/23 11:45:31;;;;;;;4.10;1.50;;;18.80;99.90;;;;;;5031337;28;20222;-64
2022/09/23 11:48:02;;;;;;;2.90;1.70;;;18.70;99.90;;;;;;5030205;28;20644;-61
2022/09/23 11:50:34;;;;;;;3.60;1.60;;;18.90;99.90;;;;;;5031468;28;20207;-61
2022/09/23 11:53:05;;;;;;;3.20;1.40;;;19.10;99.90;;;;;;5030606;28;20206;-61
2022/09/23 11:55:40;;;;;;;2.53;1.50;;;18.90;99.90;;;;;;5027030;28;20214;-61
2022/09/23 11:58:30;;;;;;;3.20;1.50;;;19.00;99.90;;;;;;5026034;28;20245;-63
2022/09/23 12:01:02;;;;;;;2.47;1.20;;;19.10;99.90;;;;;;5030558;28;20206;-61
2022/09/23 12:03:39;;;;;;;2.30;1.30;;;19.00;99.90;;;;;;5030564;28;20698;-63
2022/09/23 12:06:11;;;;;;;4.00;1.20;;;19.00;99.90;;;;;;5030575;28;20253;-61
2022/09/23 12:08:38;;;;;;;1.93;1.30;;;18.90;99.90;;;;;;5030682;28;20230;-62
2022/09/23 12:11:19;;;;;;;2.07;1.20;;;18.80;99.90;;;;;;5030806;28;20202;-60
2022/09/23 12:13:54;;;;;;;3.80;1.47;;;18.70;99.90;;;;;;5030783;28;20627;-66
2022/09/23 12:16:53;;;;;;;2.63;1.10;;;18.90;99.90;;;;;;5030271;28;20612;-66
2022/09/23 12:19:37;;;;;;;4.03;1.20;;;18.90;99.90;;;;;;5031177;28;20627;-62
2022/09/23 12:22:17;;;;;;;2.80;1.40;;;19.20;99.90;;;;;;5030502;28;20210;-64
2022/09/23 12:24:54;;;;;;;2.83;1.13;;;19.50;99.90;;;;;;5030902;28;20209;-65
2022/09/23 12:27:29;;;;;;;2.60;1.40;;;19.70;99.90;;;;;;5030014;28;20233;-63
2022/09/23 12:29:59;;;;;;;3.00;1.10;;;19.40;99.90;;;;;;5031057;28;20209;-67
2022/09/23 12:32:26;;;;;;;3.20;1.30;;;19.20;99.90;;;;;;5030784;28;20348;-63
2022/09/23 12:34:55;;;;;;;2.23;1.10;;;19.30;99.90;;;;;;5030979;28;20211;-64
2022/09/23 12:37:33;;;;;;;2.17;1.30;;;19.30;99.90;;;;;;5029858;28;20767;-63
2022/09/23 12:40:06;;;;;;;3.23;1.37;;;19.20;99.90;;;;;;5031549;28;20621;-66
2022/09/23 12:42:33;;;;;;;5.73;1.30;;;19.30;99.90;;;;;;5033938;28;20206;-64
2022/09/23 12:45:34;;;;;;;4.97;1.50;;;19.50;99.90;;;;;;5034350;28;20750;-64
2022/09/23 12:48:03;;;;;;;3.30;1.60;;;19.40;99.90;;;;;;4972196;28;20238;-64
2022/09/23 12:50:51;;;;;;;5.13;1.23;;;19.30;99.90;;;;;;4973001;28;20275;-65
2022/09/23 12:53:51;;;;;;;2.07;1.07;;;19.00;99.90;;;;;;5009417;28;20218;-61
2022/09/23 12:56:20;;;;;;;4.13;1.40;;;19.20;99.90;;;;;;5034100;28;20234;-62
2022/09/23 12:58:58;;;;;;;2.40;1.40;;;19.30;99.90;;;;;;5033952;28;20206;-65
2022/09/23 13:01:25;;;;;;;1.73;1.30;;;19.30;99.90;;;;;;5034407;28;20781;-65
2022/09/23 13:06:42;;;;;;;1.70;1.27;;;19.10;99.90;;;;;;5033827;28;20264;-66
2022/09/23 13:09:15;;;;;;;4.50;1.50;;;19.10;99.90;;;;;;5033894;28;20222;-65
2022/09/23 13:11:46;;;;;;;2.70;1.27;;;18.90;99.90;;;;;;5034468;28;20687;-63
2022/09/23 13:14:20;;;;;;;2.63;1.20;;;19.00;99.90;;;;;;5034272;28;20218;-64
2022/09/23 13:16:48;;;;;;;2.33;1.00;;;18.90;99.90;;;;;;5033176;28;20269;-64
2022/09/23 13:19:44;;;;;;;3.07;1.30;;;18.70;99.90;;;;;;5032685;28;20202;-63
2022/09/23 13:22:13;;;;;;;3.80;1.50;;;18.70;99.90;;;;;;5033074;28;20664;-61
2022/09/23 13:24:42;;;;;;;3.13;1.30;;;18.60;99.90;;;;;;5033959;28;20210;-61